Time;durP1;ratioP1;P1;durP2;ratioP2;P2;SDS_P1;SDS_P2;PMS_P1;PMS_P2;Temp;Humidity;BMP_temperature;BMP_pressure;BME280_temperature;BME280_humidity;BME280_pressure;Samples;Min_cycle;Max_cycle;Signal;HPM_P1;HPM_P2
2023/04/04 00:01:56;;;;;;;6.35;5.75;;;9.00;99.90;;;;;;5053443;28;20486;-64
2023/04/04 00:04:22;;;;;;;6.07;5.47;;;9.20;99.90;;;;;;5053066;28;20053;-64
2023/04/04 00:06:48;;;;;;;6.55;5.82;;;9.20;99.90;;;;;;5053411;28;20033;-64
2023/04/04 00:09:14;;;;;;;5.82;5.32;;;9.10;99.90;;;;;;5053212;28;20402;-64
2023/04/04 00:11:41;;;;;;;6.15;5.60;;;9.10;99.90;;;;;;5053368;28;20078;-65
2023/04/04 00:14:07;;;;;;;6.07;4.97;;;9.10;99.90;;;;;;5053290;28;20037;-64
2023/04/04 00:16:33;;;;;;;5.75;5.20;;;9.10;99.90;;;;;;5053262;28;20025;-64
2023/04/04 00:18:59;;;;;;;6.25;5.68;;;8.90;99.90;;;;;;5053294;28;20024;-65
2023/04/04 00:21:26;;;;;;;5.60;5.10;;;8.90;99.90;;;;;;5053488;28;20074;-64
2023/04/04 00:23:53;;;;;;;5.70;5.22;;;8.90;99.90;;;;;;5053133;28;20112;-64
2023/04/04 00:26:20;;;;;;;5.45;4.95;;;8.70;99.90;;;;;;5052742;28;20032;-65
2023/04/04 00:28:46;;;;;;;5.53;5.03;;;8.80;99.90;;;;;;5053000;28;20064;-64
2023/04/04 00:31:12;;;;;;;5.45;4.95;;;8.80;99.90;;;;;;5053317;28;20057;-64
2023/04/04 00:33:37;;;;;;;5.28;4.82;;;8.70;99.90;;;;;;5051623;28;20029;-64
2023/04/04 00:36:03;;;;;;;5.38;4.88;;;8.70;99.90;;;;;;5052931;28;20405;-64
2023/04/04 00:38:29;;;;;;;5.72;5.22;;;8.60;99.90;;;;;;5052872;28;20027;-64
2023/04/04 00:40:56;;;;;;;5.30;4.90;;;8.60;99.90;;;;;;5052724;28;20432;-65
2023/04/04 00:43:22;;;;;;;5.25;4.85;;;8.40;99.90;;;;;;5052695;28;20524;-64
2023/04/04 00:45:50;;;;;;;5.93;5.32;;;8.40;99.90;;;;;;5052717;28;20053;-64
2023/04/04 00:48:16;;;;;;;5.82;5.32;;;8.50;99.90;;;;;;5052621;28;20033;-64
2023/04/04 00:50:42;;;;;;;5.75;5.25;;;8.50;99.90;;;;;;5052816;28;20033;-64
2023/04/04 00:53:07;;;;;;;5.30;4.90;;;8.50;99.90;;;;;;5052939;28;20029;-64
2023/04/04 00:55:39;;;;;;;5.30;4.90;;;8.40;99.90;;;;;;5052219;28;20052;-64
2023/04/04 00:58:05;;;;;;;6.20;5.70;;;8.60;99.90;;;;;;5052635;28;20043;-64
2023/04/04 01:00:34;;;;;;;5.30;4.85;;;8.70;99.90;;;;;;5051493;28;20040;-64
2023/04/04 01:03:00;;;;;;;6.15;5.07;;;8.60;99.90;;;;;;5052831;28;20105;-64
2023/04/04 01:05:26;;;;;;;5.65;5.15;;;8.60;99.90;;;;;;5052066;28;20455;-64
2023/04/04 01:07:51;;;;;;;6.00;5.40;;;8.80;99.90;;;;;;5051882;28;20037;-65
2023/04/04 01:10:17;;;;;;;5.55;5.15;;;8.70;99.90;;;;;;5052206;28;20105;-64
2023/04/04 01:12:43;;;;;;;5.95;5.45;;;8.60;99.90;;;;;;5052214;28;20086;-64
2023/04/04 01:15:09;;;;;;;5.88;5.38;;;8.60;99.90;;;;;;5052289;28;20025;-64
2023/04/04 01:17:36;;;;;;;6.90;4.80;;;8.60;99.90;;;;;;5052176;28;20029;-64
2023/04/04 01:20:06;;;;;;;5.20;4.70;;;8.60;99.90;;;;;;5052081;28;20029;-64
2023/04/04 01:22:33;;;;;;;5.20;4.80;;;8.60;99.90;;;;;;5052262;28;20028;-65
2023/04/04 01:25:01;;;;;;;4.65;4.30;;;8.50;99.90;;;;;;5051845;28;20060;-64
2023/04/04 01:27:27;;;;;;;5.20;4.80;;;8.60;99.90;;;;;;5052003;28;20041;-64
2023/04/04 01:29:53;;;;;;;5.25;4.72;;;8.50;99.90;;;;;;5052055;28;20536;-65
2023/04/04 01:32:24;;;;;;;4.68;4.28;;;8.50;99.90;;;;;;5052014;28;20025;-64
2023/04/04 01:35:03;;;;;;;4.95;4.55;;;8.40;99.90;;;;;;5052521;28;20045;-64
2023/04/04 01:37:40;;;;;;;5.57;5.07;;;8.40;99.90;;;;;;5052480;28;20029;-65
2023/04/04 01:40:34;;;;;;;4.78;4.38;;;8.40;99.90;;;;;;5051561;28;20040;-64
2023/04/04 01:43:00;;;;;;;5.07;4.68;;;8.20;99.90;;;;;;5051008;28;20465;-64
2023/04/04 01:45:27;;;;;;;5.15;4.70;;;8.30;99.90;;;;;;5052345;28;20100;-64
2023/04/04 01:47:52;;;;;;;4.75;4.30;;;8.30;99.90;;;;;;5051864;28;20033;-64
2023/04/04 01:50:18;;;;;;;4.53;4.13;;;8.20;99.90;;;;;;5051905;28;20021;-64
2023/04/04 01:52:44;;;;;;;4.63;4.30;;;8.20;99.90;;;;;;5051615;28;20492;-64
2023/04/04 01:55:10;;;;;;;5.00;4.50;;;8.20;99.90;;;;;;5051452;28;20319;-65
2023/04/04 01:57:36;;;;;;;4.65;4.25;;;8.10;99.90;;;;;;5051661;28;20548;-64
2023/04/04 02:00:02;;;;;;;5.00;4.35;;;8.10;99.90;;;;;;5052128;28;20029;-64
2023/04/04 02:02:27;;;;;;;5.55;4.47;;;8.00;99.90;;;;;;5051667;28;20035;-64
2023/04/04 02:04:54;;;;;;;5.00;4.50;;;8.00;99.90;;;;;;5051404;28;20048;-64
2023/04/04 02:07:19;;;;;;;4.70;4.30;;;8.00;99.90;;;;;;5051633;28;20439;-64
2023/04/04 02:09:45;;;;;;;4.72;4.30;;;7.90;99.90;;;;;;5051327;28;20100;-64
2023/04/04 02:12:11;;;;;;;4.57;4.22;;;8.00;99.90;;;;;;5053235;28;20104;-64
2023/04/04 02:14:37;;;;;;;4.68;4.28;;;7.90;99.90;;;;;;5056127;28;20107;-64
2023/04/04 02:17:02;;;;;;;4.07;3.78;;;7.90;99.90;;;;;;5055413;28;20490;-64
2023/04/04 02:19:28;;;;;;;4.78;4.38;;;7.80;99.90;;;;;;5055558;28;20033;-64
2023/04/04 02:21:55;;;;;;;4.72;4.28;;;7.80;99.90;;;;;;5055308;28;20064;-64
2023/04/04 02:24:21;;;;;;;4.47;4.07;;;7.70;99.90;;;;;;5055116;28;20029;-64
2023/04/04 02:26:47;;;;;;;4.68;4.22;;;7.70;99.90;;;;;;5055309;28;20032;-64
2023/04/04 02:29:13;;;;;;;4.25;3.95;;;7.60;99.90;;;;;;5055338;28;20192;-64
2023/04/04 02:31:38;;;;;;;4.40;4.05;;;7.60;99.90;;;;;;5055356;28;20743;-64
2023/04/04 02:34:04;;;;;;;4.57;4.18;;;7.60;99.90;;;;;;5055217;28;20246;-64
2023/04/04 02:36:30;;;;;;;4.35;3.95;;;7.60;99.90;;;;;;5055434;28;20033;-64
2023/04/04 02:38:56;;;;;;;4.20;3.90;;;7.60;99.90;;;;;;5055038;28;20036;-64
2023/04/04 02:41:22;;;;;;;4.65;4.13;;;7.50;99.90;;;;;;5054951;28;20486;-64
2023/04/04 02:43:48;;;;;;;4.07;3.78;;;7.60;99.90;;;;;;5055611;28;20048;-64
2023/04/04 02:46:13;;;;;;;4.22;3.83;;;7.60;99.90;;;;;;5055003;28;20044;-64
2023/04/04 02:48:39;;;;;;;4.50;4.05;;;7.50;99.90;;;;;;5054900;28;20037;-64
2023/04/04 02:51:05;;;;;;;3.95;3.65;;;7.50;99.90;;;;;;5054334;28;20024;-64
2023/04/04 02:53:31;;;;;;;4.43;3.58;;;7.50;99.90;;;;;;5054778;28;20108;-64
2023/04/04 02:55:57;;;;;;;4.53;4.13;;;7.50;99.90;;;;;;5054926;28;20082;-64
2023/04/04 02:58:23;;;;;;;4.13;3.70;;;7.40;99.90;;;;;;5054713;28;20033;-64
2023/04/04 03:00:55;;;;;;;4.57;3.90;;;7.40;99.90;;;;;;5055185;28;20021;-64
2023/04/04 03:03:20;;;;;;;4.20;3.80;;;7.30;99.90;;;;;;5054845;28;20029;-65
2023/04/04 03:05:48;;;;;;;4.05;3.67;;;7.30;99.90;;;;;;5053898;28;20045;-64
2023/04/04 03:08:14;;;;;;;3.92;3.63;;;7.30;99.90;;;;;;5054455;28;20045;-64
2023/04/04 03:10:40;;;;;;;4.22;3.88;;;7.40;99.90;;;;;;5054349;28;20074;-64
2023/04/04 03:13:06;;;;;;;4.13;3.72;;;7.30;99.90;;;;;;5054642;28;20390;-64
2023/04/04 03:15:32;;;;;;;4.00;3.70;;;7.30;99.90;;;;;;5054874;28;20024;-64
2023/04/04 03:17:58;;;;;;;4.22;3.83;;;7.30;99.90;;;;;;5054380;28;20040;-64
2023/04/04 03:20:25;;;;;;;4.40;4.00;;;7.30;99.90;;;;;;5053901;28;20104;-64
2023/04/04 03:22:51;;;;;;;4.18;3.80;;;7.30;99.90;;;;;;5052610;28;20036;-64
2023/04/04 03:25:16;;;;;;;4.63;4.22;;;7.30;99.90;;;;;;5053683;28;20028;-64
2023/04/04 03:27:43;;;;;;;5.00;4.10;;;7.30;99.90;;;;;;5054193;28;20413;-64
2023/04/04 03:30:09;;;;;;;4.70;4.22;;;7.20;99.90;;;;;;5054243;28;20127;-64
2023/04/04 03:32:36;;;;;;;4.30;3.90;;;7.20;99.90;;;;;;5053976;28;20033;-64
2023/04/04 03:35:02;;;;;;;4.85;4.43;;;7.10;99.90;;;;;;5054037;28;20017;-64
2023/04/04 03:37:31;;;;;;;4.30;3.90;;;7.10;99.90;;;;;;5054051;28;20036;-64
2023/04/04 03:39:57;;;;;;;4.55;4.10;;;7.00;99.90;;;;;;5054043;28;20029;-64
2023/04/04 03:42:22;;;;;;;5.13;3.90;;;7.10;99.90;;;;;;5053848;28;20032;-65
2023/04/04 03:44:48;;;;;;;4.25;3.95;;;7.10;99.90;;;;;;5054237;28;20036;-64
2023/04/04 03:47:14;;;;;;;5.05;4.55;;;7.00;99.90;;;;;;5053760;28;20041;-64
2023/04/04 03:49:40;;;;;;;4.95;4.32;;;7.00;99.90;;;;;;5053513;28;20032;-64
2023/04/04 03:52:06;;;;;;;5.03;4.57;;;7.10;99.90;;;;;;5054022;28;20485;-64
2023/04/04 03:54:32;;;;;;;6.15;4.22;;;7.00;99.90;;;;;;5053785;28;20060;-64
2023/04/04 03:56:57;;;;;;;7.35;4.82;;;7.00;99.90;;;;;;5053943;28;20095;-64
2023/04/04 03:59:24;;;;;;;5.60;4.65;;;6.90;99.90;;;;;;5053437;28;20056;-64
2023/04/04 04:01:49;;;;;;;5.72;5.07;;;6.80;99.90;;;;;;5053538;28;20508;-64
2023/04/04 04:04:15;;;;;;;5.13;4.63;;;6.90;99.90;;;;;;5052925;28;20064;-64
2023/04/04 04:06:41;;;;;;;5.80;4.70;;;7.00;99.90;;;;;;5053729;28;20497;-65
2023/04/04 04:09:07;;;;;;;4.47;4.07;;;6.90;99.90;;;;;;5053331;28;20036;-64
2023/04/04 04:11:33;;;;;;;4.55;4.10;;;7.00;99.90;;;;;;5053203;28;20104;-65
2023/04/04 04:13:59;;;;;;;5.13;4.63;;;7.00;99.90;;;;;;5052779;28;20405;-63
2023/04/04 04:16:26;;;;;;;4.70;4.30;;;7.00;99.90;;;;;;5052014;28;20036;-64
2023/04/04 04:18:52;;;;;;;6.90;4.60;;;7.00;99.90;;;;;;5052061;28;20017;-63
2023/04/04 04:21:18;;;;;;;5.40;4.90;;;7.00;99.90;;;;;;5052312;28;20409;-64
2023/04/04 04:23:44;;;;;;;5.50;4.78;;;6.90;99.90;;;;;;5053100;28;20032;-65
2023/04/04 04:26:10;;;;;;;5.13;4.70;;;6.90;99.90;;;;;;5053119;28;20041;-64
2023/04/04 04:28:35;;;;;;;5.30;4.80;;;6.90;99.90;;;;;;5052939;28;20032;-64
2023/04/04 04:31:08;;;;;;;5.50;4.90;;;6.90;99.90;;;;;;5053047;28;20043;-64
2023/04/04 04:33:35;;;;;;;5.37;4.67;;;6.80;99.90;;;;;;5051179;28;20125;-65
2023/04/04 04:36:05;;;;;;;7.90;5.20;;;6.80;99.90;;;;;;5053010;28;20028;-64
2023/04/04 04:38:32;;;;;;;7.50;5.18;;;6.80;99.90;;;;;;5053239;28;20177;-64
2023/04/04 04:40:58;;;;;;;5.90;5.10;;;6.80;99.90;;;;;;5052983;28;20115;-64
2023/04/04 04:43:23;;;;;;;7.30;5.45;;;6.80;99.90;;;;;;5053168;28;20174;-65
2023/04/04 04:45:49;;;;;;;5.20;4.80;;;6.70;99.90;;;;;;5052832;28;20485;-65
2023/04/04 04:48:16;;;;;;;6.25;5.50;;;6.80;99.90;;;;;;5052016;28;20037;-64
2023/04/04 04:50:45;;;;;;;5.63;5.13;;;6.80;99.90;;;;;;5052478;28;20032;-65
2023/04/04 04:53:15;;;;;;;7.18;5.30;;;6.80;99.90;;;;;;5052249;28;20482;-65
2023/04/04 04:55:44;;;;;;;6.20;5.57;;;6.70;99.90;;;;;;5051355;28;20112;-64
2023/04/04 04:58:10;;;;;;;5.65;5.15;;;6.70;99.90;;;;;;5052528;28;20028;-65
2023/04/04 05:00:36;;;;;;;6.47;5.80;;;6.70;99.90;;;;;;5052715;28;20028;-64
2023/04/04 05:03:05;;;;;;;6.00;5.50;;;6.70;99.90;;;;;;5051788;28;20033;-65
2023/04/04 05:05:35;;;;;;;6.32;5.72;;;6.60;99.90;;;;;;5052042;28;20576;-65
2023/04/04 05:08:01;;;;;;;6.40;5.80;;;6.60;99.90;;;;;;5052750;28;20056;-64
2023/04/04 05:13:48;;;;;;;7.07;5.70;;;6.60;99.90;;;;;;5052935;28;20028;-64
2023/04/04 05:16:15;;;;;;;6.47;5.93;;;6.60;99.90;;;;;;5051934;28;20029;-65
2023/04/04 05:18:40;;;;;;;6.50;5.47;;;6.50;99.90;;;;;;5052203;28;20056;-65
2023/04/04 05:21:06;;;;;;;7.07;5.55;;;6.60;99.90;;;;;;5052745;28;20477;-64
2023/04/04 05:23:32;;;;;;;7.07;6.10;;;6.60;99.90;;;;;;5052160;28;20025;-64
2023/04/04 05:25:57;;;;;;;7.28;5.70;;;6.60;99.90;;;;;;5052080;28;20033;-64
2023/04/04 05:28:23;;;;;;;6.05;5.30;;;6.70;99.90;;;;;;5052019;28;20037;-65
2023/04/04 05:30:49;;;;;;;7.35;5.82;;;6.60;99.90;;;;;;5051722;28;20029;-64
2023/04/04 05:33:14;;;;;;;5.97;5.47;;;6.50;99.90;;;;;;5052218;28;20032;-65
2023/04/04 05:35:40;;;;;;;9.20;5.65;;;6.60;99.90;;;;;;5052066;28;20029;-65
2023/04/04 05:38:06;;;;;;;6.43;5.50;;;6.60;99.90;;;;;;5051959;28;20082;-64
2023/04/04 05:40:32;;;;;;;7.60;6.20;;;6.60;99.90;;;;;;5051980;28;20052;-64
2023/04/04 05:42:59;;;;;;;9.05;6.43;;;6.60;99.90;;;;;;5051940;28;20383;-65
2023/04/04 05:45:25;;;;;;;6.75;6.03;;;6.60;99.90;;;;;;5051478;28;20029;-64
2023/04/04 05:47:51;;;;;;;6.05;5.55;;;6.60;99.90;;;;;;5054928;28;20045;-64
2023/04/04 05:50:17;;;;;;;6.57;5.70;;;6.60;99.90;;;;;;5056219;28;20029;-64
2023/04/04 05:52:43;;;;;;;6.63;6.03;;;6.60;99.90;;;;;;5056002;28;20401;-64
2023/04/04 05:55:08;;;;;;;6.78;5.68;;;6.60;99.90;;;;;;5056412;28;20025;-65
2023/04/04 05:57:34;;;;;;;8.38;6.88;;;6.50;99.90;;;;;;5055923;28;20108;-64
2023/04/04 06:00:00;;;;;;;8.48;6.55;;;6.60;99.90;;;;;;5055519;28;20060;-64
2023/04/04 06:02:26;;;;;;;7.40;6.70;;;6.60;99.90;;;;;;5055721;28;20025;-64
2023/04/04 06:04:51;;;;;;;8.88;6.82;;;6.50;99.90;;;;;;5055531;28;20099;-65
2023/04/04 06:07:17;;;;;;;7.40;6.28;;;6.50;99.90;;;;;;5055727;28;20040;-65
2023/04/04 06:09:43;;;;;;;6.72;6.00;;;6.50;99.90;;;;;;5055962;28;20208;-64
2023/04/04 06:12:09;;;;;;;9.20;6.22;;;6.50;99.90;;;;;;5055671;28;20025;-64
2023/04/04 06:14:35;;;;;;;6.60;6.00;;;6.40;99.90;;;;;;5055263;28;20029;-65
2023/04/04 06:17:01;;;;;;;7.57;6.60;;;6.50;99.90;;;;;;5055898;28;20103;-64
2023/04/04 06:19:27;;;;;;;6.75;6.15;;;6.40;99.90;;;;;;5055716;28;20107;-65
2023/04/04 06:21:53;;;;;;;8.00;6.35;;;6.40;99.90;;;;;;5055327;28;20064;-65
2023/04/04 06:24:19;;;;;;;8.75;6.68;;;6.40;99.90;;;;;;5055527;28;20029;-64
2023/04/04 06:26:45;;;;;;;7.85;6.40;;;6.50;99.90;;;;;;5055807;28;20025;-64
2023/04/04 06:29:11;;;;;;;7.85;6.70;;;6.50;99.90;;;;;;5054927;28;20037;-65
2023/04/04 06:31:37;;;;;;;7.50;6.80;;;6.50;99.90;;;;;;5055449;28;20079;-65
2023/04/04 06:34:02;;;;;;;7.25;6.47;;;6.40;99.90;;;;;;5055144;28;20033;-65
2023/04/04 06:36:28;;;;;;;8.27;6.68;;;6.40;99.90;;;;;;5055206;28;20032;-64
2023/04/04 06:38:54;;;;;;;6.82;6.22;;;6.30;99.90;;;;;;5055649;28;20020;-64
2023/04/04 06:41:19;;;;;;;6.97;6.22;;;6.40;99.90;;;;;;5055113;28;20087;-64
2023/04/04 06:43:47;;;;;;;8.60;6.80;;;6.40;99.90;;;;;;5054215;28;20021;-64
2023/04/04 06:46:13;;;;;;;6.90;6.20;;;6.40;99.90;;;;;;5055504;28;20020;-64
2023/04/04 06:48:38;;;;;;;8.15;7.32;;;6.30;99.90;;;;;;5054803;28;20044;-65
2023/04/04 06:51:08;;;;;;;7.40;6.40;;;6.40;99.90;;;;;;5054967;28;20104;-64
2023/04/04 06:53:34;;;;;;;6.93;6.32;;;6.40;99.90;;;;;;5054849;28;20043;-64
2023/04/04 06:56:00;;;;;;;6.95;6.35;;;6.40;99.90;;;;;;5054874;28;20021;-65
2023/04/04 06:58:25;;;;;;;7.55;6.80;;;6.40;99.90;;;;;;5054293;28;20064;-64
2023/04/04 07:00:51;;;;;;;8.88;7.10;;;6.40;99.90;;;;;;5054855;28;20494;-64
2023/04/04 07:03:17;;;;;;;7.95;7.13;;;6.50;99.90;;;;;;5055063;28;20033;-64
2023/04/04 07:05:42;;;;;;;7.53;6.82;;;6.50;99.90;;;;;;5054464;28;20045;-64
2023/04/04 07:08:08;;;;;;;7.03;6.30;;;6.50;99.90;;;;;;5054864;28;20037;-64
2023/04/04 07:10:34;;;;;;;7.35;6.65;;;6.50;99.90;;;;;;5054888;28;20028;-64
2023/04/04 07:13:00;;;;;;;9.75;6.65;;;6.50;99.90;;;;;;5054130;28;20417;-65
2023/04/04 07:15:26;;;;;;;11.30;6.55;;;6.50;99.90;;;;;;5054499;28;20051;-65
2023/04/04 07:17:52;;;;;;;7.88;6.70;;;6.50;99.90;;;;;;5054388;28;20040;-64
2023/04/04 07:20:18;;;;;;;9.65;6.53;;;6.60;99.90;;;;;;5054774;28;20029;-65
2023/04/04 07:22:45;;;;;;;7.35;6.22;;;6.60;99.90;;;;;;5054327;28;20031;-64
2023/04/04 07:25:12;;;;;;;6.75;6.13;;;6.60;99.90;;;;;;5054149;28;20104;-64
2023/04/04 07:27:39;;;;;;;7.63;6.15;;;6.60;99.90;;;;;;5053786;28;20112;-64
2023/04/04 07:30:07;;;;;;;7.20;6.00;;;6.60;99.90;;;;;;5054522;28;20028;-64
2023/04/04 07:32:33;;;;;;;6.75;6.00;;;6.70;99.90;;;;;;5053955;28;20139;-64
2023/04/04 07:34:58;;;;;;;6.82;6.22;;;6.70;99.90;;;;;;5054662;28;20067;-65
2023/04/04 07:37:25;;;;;;;8.20;6.40;;;6.60;99.90;;;;;;5054054;28;20033;-64
2023/04/04 07:39:51;;;;;;;6.93;5.82;;;6.70;99.90;;;;;;5054063;28;20029;-65
2023/04/04 07:42:21;;;;;;;7.05;6.35;;;6.70;99.90;;;;;;5053593;28;20017;-65
2023/04/04 07:44:51;;;;;;;8.30;6.00;;;6.70;99.90;;;;;;5054383;28;20028;-65
2023/04/04 07:47:17;;;;;;;6.70;5.57;;;6.70;99.90;;;;;;5053771;28;20044;-64
2023/04/04 07:49:43;;;;;;;5.95;5.45;;;6.80;99.90;;;;;;5053782;28;20044;-64
2023/04/04 07:52:09;;;;;;;7.68;5.70;;;6.80;99.90;;;;;;5053856;28;20017;-66
2023/04/04 07:54:35;;;;;;;6.85;5.40;;;6.80;99.90;;;;;;5053809;28;20028;-65
2023/04/04 07:57:04;;;;;;;5.80;5.20;;;6.80;99.90;;;;;;5053199;28;20017;-65
2023/04/04 07:59:33;;;;;;;6.70;5.97;;;6.80;99.90;;;;;;5053954;28;20215;-64
2023/04/04 08:01:58;;;;;;;6.60;5.60;;;6.90;99.90;;;;;;5053519;28;20021;-64
2023/04/04 08:04:24;;;;;;;8.25;6.20;;;6.90;99.90;;;;;;5053233;28;20561;-65
2023/04/04 08:06:50;;;;;;;6.25;5.55;;;7.00;99.90;;;;;;5053540;28;20444;-65
2023/04/04 08:09:16;;;;;;;5.90;5.40;;;7.00;99.90;;;;;;5052845;28;20441;-65
2023/04/04 08:11:42;;;;;;;6.03;5.40;;;7.10;99.90;;;;;;5053289;28;20021;-64
2023/04/04 08:14:10;;;;;;;6.72;5.55;;;7.10;99.90;;;;;;5053549;28;20036;-64
2023/04/04 08:16:37;;;;;;;7.28;5.60;;;7.20;99.90;;;;;;5053472;28;20100;-65
2023/04/04 08:19:03;;;;;;;5.45;4.95;;;7.20;99.90;;;;;;5053254;28;20103;-65
2023/04/04 08:21:29;;;;;;;6.15;5.30;;;7.30;99.90;;;;;;5053277;28;20105;-65
2023/04/04 08:23:55;;;;;;;8.23;5.10;;;7.30;99.90;;;;;;5053440;28;20100;-65
2023/04/04 08:26:20;;;;;;;7.72;5.35;;;7.40;99.90;;;;;;5052746;28;20100;-65
2023/04/04 08:28:46;;;;;;;6.95;4.68;;;7.40;99.90;;;;;;5051776;28;20473;-64
2023/04/04 08:31:12;;;;;;;7.13;5.10;;;7.40;99.90;;;;;;5053362;28;20017;-65
2023/04/04 08:33:38;;;;;;;5.38;4.70;;;7.50;99.90;;;;;;5052816;28;20448;-64
2023/04/04 08:36:04;;;;;;;5.72;4.57;;;7.50;99.90;;;;;;5053345;28;20108;-64
2023/04/04 08:38:30;;;;;;;5.30;4.45;;;7.50;99.90;;;;;;5053033;28;20029;-65
2023/04/04 08:40:55;;;;;;;4.55;4.15;;;7.70;99.90;;;;;;5052558;28;20371;-65
2023/04/04 08:43:23;;;;;;;4.82;4.43;;;7.80;99.90;;;;;;5052858;28;20519;-65
2023/04/04 08:45:52;;;;;;;5.75;4.38;;;7.80;99.90;;;;;;5052691;28;20025;-66
2023/04/04 08:48:20;;;;;;;5.70;4.53;;;7.90;99.90;;;;;;5053038;28;20462;-66
2023/04/04 08:50:46;;;;;;;6.10;4.82;;;8.00;99.90;;;;;;5052649;28;20401;-66
2023/04/04 08:53:14;;;;;;;6.25;4.57;;;8.10;99.90;;;;;;5052311;28;20025;-66
2023/04/04 08:55:41;;;;;;;4.93;3.88;;;8.20;99.90;;;;;;5052369;28;20083;-66
2023/04/04 08:58:07;;;;;;;7.30;3.70;;;8.30;99.90;;;;;;5052829;28;20434;-65
2023/04/04 09:00:33;;;;;;;4.75;3.80;;;8.40;99.90;;;;;;5052623;28;20026;-66
2023/04/04 09:03:05;;;;;;;5.25;3.30;;;8.50;99.90;;;;;;5052513;28;20024;-66
2023/04/04 09:05:31;;;;;;;5.43;3.50;;;8.60;99.90;;;;;;5052153;28;20090;-66
2023/04/04 09:07:58;;;;;;;3.95;3.00;;;8.70;99.90;;;;;;5052635;28;20037;-65
2023/04/04 09:10:23;;;;;;;3.92;2.88;;;8.80;99.90;;;;;;5051913;28;20025;-65
2023/04/04 09:12:50;;;;;;;4.10;2.90;;;8.80;99.90;;;;;;5052606;28;20112;-65
2023/04/04 09:15:16;;;;;;;3.75;2.80;;;8.90;99.90;;;;;;5052120;28;20021;-64
2023/04/04 09:17:42;;;;;;;3.30;2.60;;;9.00;99.90;;;;;;5052422;28;20110;-65
2023/04/04 09:20:40;;;;;;;3.65;2.42;;;9.00;99.90;;;;;;5052542;28;20060;-65
2023/04/04 09:23:14;;;;;;;6.65;3.50;;;9.10;99.90;;;;;;5049654;28;20061;-65
2023/04/04 09:25:48;;;;;;;6.72;2.72;;;9.20;99.90;;;;;;5052263;28;20107;-65
2023/04/04 09:28:15;;;;;;;5.03;2.80;;;9.20;99.90;;;;;;5052213;28;20048;-65
2023/04/04 09:30:42;;;;;;;3.70;2.72;;;9.40;99.90;;;;;;5052081;28;20025;-64
2023/04/04 09:33:10;;;;;;;4.30;2.55;;;9.50;99.90;;;;;;5051969;28;20485;-64
2023/04/04 09:35:43;;;;;;;6.45;2.85;;;9.40;99.90;;;;;;5052491;28;20092;-64
2023/04/04 09:38:08;;;;;;;2.72;2.20;;;9.50;99.90;;;;;;5051839;28;20615;-64
2023/04/04 09:40:39;;;;;;;4.05;2.55;;;9.60;99.90;;;;;;5052108;28;20100;-65
2023/04/04 09:43:07;;;;;;;3.60;2.30;;;9.50;99.90;;;;;;5052105;28;20167;-66
2023/04/04 09:45:34;;;;;;;3.75;2.50;;;9.70;99.90;;;;;;5052055;28;20544;-66
2023/04/04 09:48:01;;;;;;;3.78;2.40;;;9.80;99.90;;;;;;5050782;28;20033;-66
2023/04/04 09:50:32;;;;;;;3.05;2.45;;;9.80;99.90;;;;;;5051919;28;20020;-65
2023/04/04 09:52:59;;;;;;;5.78;2.42;;;9.80;99.90;;;;;;5051809;28;20095;-65
2023/04/04 09:55:36;;;;;;;3.92;2.33;;;9.90;99.90;;;;;;5051959;28;20025;-65
2023/04/04 09:58:17;;;;;;;4.32;2.42;;;10.10;99.90;;;;;;5051859;28;20043;-65
2023/04/04 10:00:47;;;;;;;5.32;2.58;;;10.10;99.90;;;;;;5052179;28;20056;-65
2023/04/04 10:03:16;;;;;;;3.83;2.25;;;10.20;99.90;;;;;;5051821;28;20426;-65
2023/04/04 10:05:44;;;;;;;3.70;2.25;;;10.10;99.90;;;;;;5051416;28;20053;-65
2023/04/04 10:08:17;;;;;;;2.58;2.38;;;10.10;99.90;;;;;;5051367;28;20113;-65
2023/04/04 10:10:59;;;;;;;3.07;2.13;;;10.20;99.90;;;;;;5051959;28;20104;-65
2023/04/04 10:13:29;;;;;;;4.57;2.30;;;10.30;99.90;;;;;;5052087;28;20508;-65
2023/04/04 10:15:59;;;;;;;5.43;2.38;;;10.40;99.90;;;;;;5051758;28;20032;-65
2023/04/04 10:18:26;;;;;;;2.55;2.03;;;10.50;99.90;;;;;;5051668;28;20397;-65
2023/04/04 10:20:55;;;;;;;3.33;2.25;;;10.40;99.90;;;;;;5051276;28;20025;-65
2023/04/04 10:23:23;;;;;;;2.80;2.20;;;10.40;99.90;;;;;;5051851;28;20029;-65
2023/04/04 10:25:49;;;;;;;3.72;2.15;;;10.50;99.90;;;;;;5051661;28;20029;-65
2023/04/04 10:28:19;;;;;;;3.42;2.30;;;10.60;99.90;;;;;;5051564;28;20069;-65
2023/04/04 10:31:08;;;;;;;4.00;2.40;;;10.70;99.90;;;;;;5051565;28;20478;-65
2023/04/04 10:33:59;;;;;;;4.00;2.28;;;10.70;99.90;;;;;;5053536;28;20029;-65
2023/04/04 10:36:30;;;;;;;3.17;2.50;;;10.80;99.90;;;;;;5055142;28;20429;-65
2023/04/04 10:39:22;;;;;;;3.55;2.30;;;10.70;99.90;;;;;;5055359;28;20065;-65
2023/04/04 10:41:50;;;;;;;2.88;2.17;;;10.80;99.90;;;;;;5054973;28;20032;-65
2023/04/04 10:44:33;;;;;;;3.70;2.13;;;10.90;99.90;;;;;;5055036;28;20025;-65
2023/04/04 10:47:13;;;;;;;4.22;2.30;;;11.00;99.90;;;;;;5055280;28;20373;-65
2023/04/04 10:49:42;;;;;;;4.82;2.20;;;11.20;99.90;;;;;;5054983;28;20111;-65
2023/04/04 10:52:09;;;;;;;2.85;2.13;;;11.30;99.90;;;;;;5054838;28;20143;-65
2023/04/04 10:54:35;;;;;;;2.60;2.20;;;11.30;99.90;;;;;;5054882;28;20013;-65
2023/04/04 10:57:02;;;;;;;4.40;2.30;;;11.30;99.90;;;;;;5054909;28;20091;-66
2023/04/04 10:59:28;;;;;;;3.50;2.20;;;11.40;99.90;;;;;;5054960;28;20025;-65
2023/04/04 11:01:57;;;;;;;3.92;2.00;;;11.60;99.90;;;;;;5054717;28;20087;-66
2023/04/04 11:04:32;;;;;;;3.50;2.20;;;11.70;99.90;;;;;;5053987;28;20102;-65
2023/04/04 11:07:10;;;;;;;3.38;2.20;;;11.70;99.90;;;;;;5054614;28;20557;-65
2023/04/04 11:09:50;;;;;;;3.35;2.10;;;11.80;99.90;;;;;;5054947;28;20037;-66
2023/04/04 11:12:46;;;;;;;2.15;1.90;;;11.70;99.90;;;;;;5054627;28;20029;-66
2023/04/04 11:15:13;;;;;;;3.08;2.08;;;11.60;99.90;;;;;;5053258;28;20037;-65
2023/04/04 11:17:42;;;;;;;3.38;2.28;;;11.70;99.90;;;;;;5054463;28;20033;-66
2023/04/04 11:20:17;;;;;;;4.50;2.20;;;11.80;99.90;;;;;;5054094;28;20021;-65
2023/04/04 11:22:44;;;;;;;3.47;2.10;;;11.80;99.90;;;;;;5054356;28;20059;-65
2023/04/04 11:25:52;;;;;;;2.97;2.10;;;11.80;99.90;;;;;;5054644;28;20020;-66
2023/04/04 11:28:32;;;;;;;3.33;1.95;;;12.00;99.90;;;;;;5051335;28;20045;-66
2023/04/04 11:31:17;;;;;;;3.80;2.17;;;12.10;99.90;;;;;;5054701;28;20075;-65
2023/04/04 11:34:05;;;;;;;2.22;2.00;;;12.00;99.90;;;;;;5054096;28;20032;-66
2023/04/04 11:36:34;;;;;;;3.85;2.28;;;12.10;99.90;;;;;;5054301;28;20166;-65
2023/04/04 11:39:06;;;;;;;2.95;2.20;;;12.30;99.90;;;;;;5054040;28;20028;-66
2023/04/04 11:42:12;;;;;;;3.03;2.05;;;12.30;99.90;;;;;;5053995;28;20466;-66
2023/04/04 11:44:49;;;;;;;3.55;2.20;;;12.50;99.90;;;;;;5049047;28;20056;-66
2023/04/04 11:47:19;;;;;;;3.88;2.25;;;12.60;99.90;;;;;;5053724;28;20032;-65
2023/04/04 11:49:46;;;;;;;3.70;2.20;;;12.60;99.90;;;;;;5053597;28;20064;-66
2023/04/04 11:52:14;;;;;;;3.17;2.10;;;12.70;99.90;;;;;;5054263;28;20100;-66
2023/04/04 11:54:41;;;;;;;3.30;2.00;;;13.00;99.90;;;;;;5053898;28;20021;-66
2023/04/04 11:57:11;;;;;;;2.92;1.90;;;13.00;99.90;;;;;;5053740;28;20478;-66
2023/04/04 11:59:48;;;;;;;5.38;2.05;;;13.00;99.90;;;;;;5054239;28;20120;-66
2023/04/04 12:02:33;;;;;;;2.17;1.98;;;12.90;99.90;;;;;;5053134;28;20489;-66
2023/04/04 12:04:59;;;;;;;4.95;2.10;;;13.00;99.90;;;;;;5053330;28;20476;-66
2023/04/04 12:07:27;;;;;;;3.10;2.22;;;13.20;99.90;;;;;;5053467;28;20064;-65
2023/04/04 12:09:53;;;;;;;3.50;2.13;;;13.30;99.90;;;;;;5053693;28;20075;-66
2023/04/04 12:12:20;;;;;;;3.08;2.35;;;13.20;99.90;;;;;;5053517;28;20489;-66
2023/04/04 12:14:46;;;;;;;4.70;2.50;;;13.50;99.90;;;;;;5053576;28;20021;-65
2023/04/04 12:17:14;;;;;;;3.05;2.30;;;13.50;99.90;;;;;;5052819;28;20537;-65
2023/04/04 12:19:40;;;;;;;3.65;2.00;;;13.60;99.90;;;;;;5053385;28;20036;-66
2023/04/04 12:22:09;;;;;;;3.08;2.10;;;13.80;99.90;;;;;;5053329;28;20032;-66
2023/04/04 12:24:35;;;;;;;3.35;2.00;;;13.80;99.90;;;;;;5053124;28;20136;-66
2023/04/04 12:27:02;;;;;;;2.88;1.90;;;14.00;99.90;;;;;;5053298;28;20029;-66
2023/04/04 12:29:34;;;;;;;2.42;1.88;;;14.10;99.90;;;;;;5053421;28;20498;-66
2023/04/04 12:32:01;;;;;;;2.20;1.73;;;14.00;99.90;;;;;;5052623;28;20035;-66
2023/04/04 12:34:32;;;;;;;2.10;1.70;;;14.00;99.90;;;;;;5053084;28;20037;-65
2023/04/04 12:37:00;;;;;;;3.22;1.90;;;14.40;99.90;;;;;;5053401;28;20100;-66
2023/04/04 12:39:27;;;;;;;3.78;2.10;;;14.40;99.90;;;;;;5052986;28;20445;-66
2023/04/04 12:42:02;;;;;;;2.47;2.00;;;14.70;99.90;;;;;;5052816;28;20100;-66
2023/04/04 12:44:38;;;;;;;5.03;2.15;;;14.30;99.90;;;;;;5052824;28;20055;-66
2023/04/04 12:47:14;;;;;;;2.65;1.60;;;14.70;99.90;;;;;;5052763;28;20032;-66
2023/04/04 12:49:46;;;;;;;2.65;1.90;;;14.90;99.90;;;;;;5052695;28;20025;-66
2023/04/04 12:52:38;;;;;;;5.32;1.80;;;15.00;99.90;;;;;;5052723;28;20138;-66
2023/04/04 12:55:09;;;;;;;2.72;1.77;;;15.50;99.90;;;;;;5051623;28;20049;-66
2023/04/04 12:57:37;;;;;;;3.15;1.55;;;15.50;99.90;;;;;;5052889;28;20033;-66
2023/04/04 13:00:06;;;;;;;2.38;1.90;;;15.30;99.90;;;;;;5052152;28;20401;-65
2023/04/04 13:02:34;;;;;;;2.90;1.52;;;15.20;99.90;;;;;;5052470;28;20098;-66
2023/04/04 13:05:02;;;;;;;2.55;1.60;;;15.70;99.90;;;;;;5052612;28;20045;-66